Time;durP1;ratioP1;P1;durP2;ratioP2;P2;SDS_P1;SDS_P2;PMS_P1;PMS_P2;Temp;Humidity;BMP_temperature;BMP_pressure;BME280_temperature;BME280_humidity;BME280_pressure;Samples;Min_cycle;Max_cycle;Signal;HPM_P1;HPM_P2
2023/07/28 00:01:51;;;;;;;2.83;2.63;;;;;;;18.12;100.00;100112.97;6319231;28;20242;-68
2023/07/28 00:05:12;;;;;;;2.70;2.05;;;;;;;18.15;100.00;100119.88;6318076;27;20394;-68
2023/07/28 00:08:32;;;;;;;2.40;2.20;;;;;;;18.15;100.00;100128.91;6312633;27;20226;-68
2023/07/28 00:11:53;;;;;;;2.00;1.80;;;;;;;18.03;100.00;100125.06;6321024;28;20234;-69
2023/07/28 00:15:16;;;;;;;1.40;1.33;;;;;;;17.97;100.00;100125.88;6311077;28;20729;-68
2023/07/28 00:18:37;;;;;;;2.08;1.88;;;;;;;17.89;100.00;100126.06;6305812;27;20273;-68
2023/07/28 00:21:58;;;;;;;1.40;1.30;;;;;;;17.90;100.00;100121.47;6302486;27;20227;-69
2023/07/28 00:25:19;;;;;;;2.00;1.88;;;;;;;17.87;100.00;100113.66;6308374;27;20238;-68
2023/07/28 00:28:40;;;;;;;2.70;2.50;;;;;;;17.84;100.00;100104.00;6286147;27;20566;-67
2023/07/28 00:32:02;;;;;;;1.45;1.35;;;;;;;17.86;100.00;100098.31;6308301;27;20230;-68
2023/07/28 00:35:24;;;;;;;1.08;1.08;;;;;;;17.85;100.00;100096.66;6317911;27;20341;-69
2023/07/28 00:38:47;;;;;;;1.58;1.48;;;;;;;17.80;100.00;100089.09;6306335;27;20547;-68
2023/07/28 00:42:09;;;;;;;2.15;1.38;;;;;;;17.85;100.00;100092.06;6323499;27;20225;-68
2023/07/28 00:45:32;;;;;;;1.73;1.63;;;;;;;18.05;100.00;100098.44;6329603;27;20229;-69
2023/07/28 00:48:54;;;;;;;1.70;1.60;;;;;;;18.03;100.00;100097.78;6314595;27;20228;-67
2023/07/28 00:52:15;;;;;;;1.13;1.10;;;;;;;18.06;100.00;100102.00;6322539;27;20825;-68
2023/07/28 00:55:36;;;;;;;1.30;1.20;;;;;;;18.05;100.00;100097.59;6328123;27;20481;-68
2023/07/28 00:59:00;;;;;;;1.13;1.10;;;;;;;17.95;100.00;100099.84;6284617;27;20220;-67
2023/07/28 01:02:21;;;;;;;1.33;1.23;;;;;;;17.87;100.00;100089.97;6313278;27;20226;-68
2023/07/28 01:05:54;;;;;;;1.10;1.00;;;;;;;17.93;100.00;100086.44;6328074;27;20250;-69
2023/07/28 01:09:19;;;;;;;0.90;0.90;;;;;;;17.86;100.00;100087.41;6315611;27;20236;-68
2023/07/28 01:12:40;;;;;;;1.30;1.20;;;;;;;17.83;100.00;100082.38;6306757;27;20229;-67
2023/07/28 01:16:01;;;;;;;1.23;1.23;;;;;;;17.77;100.00;100085.94;6331407;27;20614;-68
2023/07/28 01:19:23;;;;;;;1.30;1.20;;;;;;;17.82;100.00;100087.00;6315433;27;20317;-68
2023/07/28 01:23:03;;;;;;;1.30;1.10;;;;;;;17.85;100.00;100077.56;6312050;27;20226;-69
2023/07/28 01:26:33;;;;;;;1.60;1.50;;;;;;;17.80;100.00;100075.44;6311073;27;20232;-68
2023/07/28 01:29:54;;;;;;;1.17;1.17;;;;;;;17.80;100.00;100071.88;6300857;27;20237;-69
2023/07/28 01:33:15;;;;;;;1.88;1.75;;;;;;;17.82;100.00;100075.22;6307032;27;20229;-68
2023/07/28 01:36:36;;;;;;;0.90;0.90;;;;;;;17.78;100.00;100077.53;6331377;27;20324;-70
2023/07/28 01:39:57;;;;;;;2.35;1.13;;;;;;;17.84;100.00;100079.44;6333961;27;20237;-68
2023/07/28 01:43:21;;;;;;;1.77;1.67;;;;;;;17.93;100.00;100077.41;6311745;27;20214;-69
2023/07/28 01:46:43;;;;;;;1.58;1.48;;;;;;;17.97;100.00;100079.53;6335127;27;20222;-68
2023/07/28 01:50:04;;;;;;;0.80;0.80;;;;;;;17.99;100.00;100074.69;6317521;27;20494;-68
2023/07/28 01:53:24;;;;;;;1.63;1.52;;;;;;;18.03;100.00;100075.97;6295018;27;20235;-68
2023/07/28 01:56:45;;;;;;;1.95;1.10;;;;;;;17.99;100.00;100071.97;6336277;27;20234;-69
2023/07/28 02:00:08;;;;;;;1.52;1.42;;;;;;;17.91;100.00;100072.16;6324925;27;20526;-67
2023/07/28 02:03:35;;;;;;;1.02;0.90;;;;;;;17.94;100.00;100076.38;6278927;28;20333;-68
2023/07/28 02:06:56;;;;;;;0.85;0.85;;;;;;;17.97;100.00;100084.97;6320026;27;20234;-70
2023/07/28 02:10:17;;;;;;;0.88;0.88;;;;;;;17.98;100.00;100083.09;6317146;27;20708;-67
2023/07/28 02:13:38;;;;;;;1.20;1.10;;;;;;;17.97;100.00;100097.75;6308847;27;20597;-67
2023/07/28 02:17:00;;;;;;;1.65;1.55;;;;;;;18.07;100.00;100104.53;6302291;27;20230;-68
2023/07/28 02:20:21;;;;;;;1.60;1.50;;;;;;;18.12;100.00;100096.59;6302427;27;20830;-68
2023/07/28 02:23:42;;;;;;;3.70;1.35;;;;;;;18.14;100.00;100101.84;6295889;27;20348;-69
2023/07/28 02:27:03;;;;;;;1.50;1.40;;;;;;;18.11;100.00;100091.31;6326719;27;20226;-69
2023/07/28 02:30:24;;;;;;;1.92;1.50;;;;;;;18.08;100.00;100097.19;6313561;27;20496;-69
2023/07/28 02:33:47;;;;;;;1.08;1.00;;;;;;;17.96;100.00;100105.09;6296882;27;20249;-68
2023/07/28 02:37:07;;;;;;;1.42;1.42;;;;;;;18.01;100.00;100105.34;6302954;28;20219;-69
2023/07/28 02:40:28;;;;;;;1.75;1.65;;;;;;;18.02;100.00;100112.47;6325937;27;20233;-68
2023/07/28 02:43:49;;;;;;;1.58;1.20;;;;;;;17.96;100.00;100107.00;6297935;27;22877;-68
2023/07/28 02:47:10;;;;;;;1.23;1.23;;;;;;;17.98;100.00;100118.56;6328128;27;20608;-68
2023/07/28 02:50:32;;;;;;;1.33;1.23;;;;;;;17.96;100.00;100118.72;6318398;27;20229;-69
2023/07/28 02:53:53;;;;;;;1.52;1.42;;;;;;;17.91;100.00;100123.13;6296842;27;20229;-69
2023/07/28 02:57:14;;;;;;;1.73;1.63;;;;;;;17.87;100.00;100136.34;6309095;28;20237;-68
2023/07/28 03:00:38;;;;;;;1.92;1.83;;;;;;;17.86;100.00;100129.19;6295188;28;20250;-69
2023/07/28 03:03:59;;;;;;;2.35;2.03;;;;;;;17.83;100.00;100140.50;6305044;27;20239;-68
2023/07/28 03:07:22;;;;;;;2.03;1.83;;;;;;;17.81;100.00;100134.41;6322962;28;20516;-69
2023/07/28 03:10:49;;;;;;;1.48;1.38;;;;;;;17.88;100.00;100132.53;6297458;28;20229;-68
2023/07/28 03:14:12;;;;;;;1.42;1.33;;;;;;;17.97;100.00;100146.84;6304083;28;20264;-68
2023/07/28 03:17:36;;;;;;;1.92;1.52;;;;;;;17.91;100.00;100153.13;6328549;27;20229;-69
2023/07/28 03:20:57;;;;;;;2.70;1.40;;;;;;;17.87;100.00;100141.78;6295908;28;20222;-68
2023/07/28 03:24:19;;;;;;;1.80;1.38;;;;;;;17.94;100.00;100142.66;6310962;27;20223;-68
2023/07/28 03:27:41;;;;;;;2.58;1.60;;;;;;;17.97;100.00;100150.44;6327696;27;20237;-67
2023/07/28 03:31:02;;;;;;;1.45;1.23;;;;;;;18.02;100.00;100147.09;6294875;28;20823;-69
2023/07/28 03:34:23;;;;;;;1.95;1.77;;;;;;;17.94;100.00;100150.00;6297865;27;20229;-69
2023/07/28 03:37:45;;;;;;;1.30;1.20;;;;;;;17.87;100.00;100143.66;6309246;28;20303;-68
2023/07/28 03:41:07;;;;;;;2.38;1.30;;;;;;;17.86;100.00;100150.13;6331480;27;20223;-69
2023/07/28 03:44:28;;;;;;;1.17;1.17;;;;;;;17.89;100.00;100147.88;6314519;27;20224;-69
2023/07/28 03:47:49;;;;;;;1.40;1.27;;;;;;;17.87;100.00;100135.47;6317754;27;20539;-68
2023/07/28 03:51:10;;;;;;;1.88;1.63;;;;;;;17.81;100.00;100150.78;6324833;27;20250;-69
2023/07/28 03:54:31;;;;;;;1.45;1.35;;;;;;;17.86;100.00;100153.72;6329156;27;20915;-69
2023/07/28 03:57:53;;;;;;;12.02;10.95;;;;;;;17.83;100.00;100150.56;6319941;27;20320;-69
2023/07/28 04:01:14;;;;;;;5.57;4.97;;;;;;;17.93;100.00;100156.50;6303769;28;20226;-70
2023/07/28 04:04:36;;;;;;;2.75;2.47;;;;;;;18.00;100.00;100157.38;6317997;27;20320;-69
2023/07/28 04:07:57;;;;;;;2.28;2.08;;;;;;;17.80;100.00;100159.13;6319170;27;20382;-67
2023/07/28 04:11:18;;;;;;;1.90;1.52;;;;;;;17.77;100.00;100163.13;6302293;28;20233;-70
2023/07/28 04:14:41;;;;;;;2.13;1.42;;;;;;;17.87;100.00;100170.94;6318338;27;20267;-68
2023/07/28 04:18:02;;;;;;;7.55;7.05;;;;;;;17.86;100.00;100177.41;6316251;27;20233;-70
2023/07/28 04:21:23;;;;;;;8.73;8.00;;;;;;;17.92;100.00;100185.63;6271657;27;20226;-68
2023/07/28 04:24:44;;;;;;;11.85;10.77;;;;;;;17.98;100.00;100182.09;6313190;27;20732;-69
2023/07/28 04:28:05;;;;;;;18.00;16.33;;;;;;;18.00;100.00;100190.13;6314688;27;20235;-69
2023/07/28 04:31:27;;;;;;;10.30;9.50;;;;;;;17.95;100.00;100195.31;6319164;27;21410;-69
2023/07/28 04:34:53;;;;;;;6.47;5.95;;;;;;;17.94;100.00;100199.09;6323215;27;20903;-68
2023/07/28 04:38:33;;;;;;;2.17;2.08;;;;;;;17.83;100.00;100195.03;6300383;28;20834;-69
2023/07/28 04:41:55;;;;;;;2.20;2.10;;;;;;;17.89;100.00;100196.97;6308357;27;20557;-69
2023/07/28 04:45:16;;;;;;;3.00;2.80;;;;;;;17.88;100.00;100206.19;6325679;27;20236;-69
2023/07/28 04:48:38;;;;;;;2.10;2.00;;;;;;;17.94;100.00;100215.47;6298631;27;20255;-70
2023/07/28 04:52:19;;;;;;;1.50;1.40;;;;;;;18.00;100.00;100211.94;6316643;27;20230;-69
2023/07/28 04:55:56;;;;;;;1.98;1.88;;;;;;;18.03;100.00;100216.97;6310923;27;20320;-70
2023/07/28 04:59:17;;;;;;;1.88;1.77;;;;;;;18.07;100.00;100224.56;6295940;27;20229;-69
2023/07/28 05:02:38;;;;;;;2.15;1.92;;;;;;;18.15;100.00;100215.34;6308214;27;20281;-70
2023/07/28 05:06:04;;;;;;;1.70;1.60;;;;;;;18.17;100.00;100213.28;6322788;27;20239;-70
2023/07/28 05:09:24;;;;;;;2.97;2.78;;;;;;;18.29;100.00;100217.97;6316199;27;20818;-69
2023/07/28 05:12:45;;;;;;;2.08;1.98;;;;;;;18.43;100.00;100223.50;6317506;27;20267;-69
2023/07/28 05:16:06;;;;;;;2.25;1.98;;;;;;;18.44;100.00;100223.31;6314965;27;20316;-68
2023/07/28 05:20:06;;;;;;;1.83;1.73;;;;;;;18.39;100.00;100225.78;6313041;27;20228;-68
2023/07/28 05:23:39;;;;;;;2.35;2.15;;;;;;;18.40;100.00;100227.47;6290036;28;20317;-68
2023/07/28 05:27:00;;;;;;;1.80;1.70;;;;;;;18.32;100.00;100242.13;6300653;28;20225;-69
2023/07/28 05:30:22;;;;;;;1.73;1.63;;;;;;;18.58;100.00;100238.72;6319813;27;20311;-69
2023/07/28 05:33:42;;;;;;;2.13;1.98;;;;;;;18.70;100.00;100237.09;6299362;27;20942;-69
2023/07/28 05:37:04;;;;;;;1.02;1.00;;;;;;;18.76;100.00;100239.00;6326923;27;20373;-68
2023/07/28 05:40:28;;;;;;;2.88;1.88;;;;;;;18.75;100.00;100248.25;6322175;27;20733;-69
2023/07/28 05:43:49;;;;;;;2.03;1.90;;;;;;;18.81;100.00;100249.31;6310878;27;20529;-69
2023/07/28 05:47:10;;;;;;;1.73;1.63;;;;;;;18.76;100.00;100257.28;6307616;27;20234;-70
2023/07/28 05:50:30;;;;;;;1.73;1.63;;;;;;;18.65;100.00;100247.78;6326368;27;20224;-68
2023/07/28 05:53:51;;;;;;;1.10;1.10;;;;;;;18.69;100.00;100249.06;6300520;27;20580;-70
2023/07/28 05:57:15;;;;;;;1.40;1.30;;;;;;;18.78;100.00;100250.56;6327342;27;20222;-68
2023/07/28 06:00:36;;;;;;;1.73;1.58;;;;;;;18.91;100.00;100249.78;6334292;27;20221;-69
2023/07/28 06:03:59;;;;;;;1.60;1.50;;;;;;;19.08;100.00;100256.56;6313638;27;20235;-70
2023/07/28 06:07:21;;;;;;;1.35;1.25;;;;;;;19.19;99.66;100266.91;6331723;27;20226;-68
2023/07/28 06:10:42;;;;;;;2.25;1.70;;;;;;;19.27;98.98;100263.97;6328444;27;20233;-69
2023/07/28 06:14:04;;;;;;;18.95;17.25;;;;;;;19.38;98.20;100268.00;6323710;27;20232;-69
2023/07/28 06:17:28;;;;;;;7.22;6.63;;;;;;;19.40;97.42;100268.66;6316579;28;20225;-69
2023/07/28 06:20:49;;;;;;;3.15;2.90;;;;;;;19.54;96.74;100267.59;6310497;27;20820;-69
2023/07/28 06:24:10;;;;;;;1.73;1.63;;;;;;;19.68;96.14;100272.03;6319761;27;20224;-69
2023/07/28 06:27:31;;;;;;;2.47;2.25;;;;;;;20.02;95.11;100274.56;6336158;27;20542;-68
2023/07/28 06:30:56;;;;;;;1.55;1.45;;;;;;;20.01;93.97;100281.06;6339611;27;20534;-70
2023/07/28 06:34:18;;;;;;;2.75;2.38;;;;;;;19.82;93.57;100280.03;6310923;27;20228;-69
2023/07/28 06:37:38;;;;;;;4.03;3.72;;;;;;;19.80;93.48;100292.22;6307564;27;20226;-68
2023/07/28 06:41:00;;;;;;;6.40;5.80;;;;;;;19.63;93.59;100293.72;6293668;27;21421;-69
2023/07/28 06:44:22;;;;;;;7.82;7.18;;;;;;;19.51;94.07;100290.75;6305227;27;20228;-69
2023/07/28 06:47:44;;;;;;;5.60;5.15;;;;;;;19.47;94.45;100296.81;6322302;27;20714;-70
2023/07/28 06:51:06;;;;;;;3.83;3.53;;;;;;;19.69;94.29;100293.69;6300011;27;20225;-70
2023/07/28 06:54:26;;;;;;;3.53;3.22;;;;;;;19.82;94.59;100295.59;6318104;27;20228;-70
2023/07/28 06:57:47;;;;;;;2.80;2.60;;;;;;;19.91;94.39;100294.34;6327485;27;20672;-70
2023/07/28 07:01:10;;;;;;;2.15;2.05;;;;;;;20.10;93.73;100300.84;6313529;27;20222;-70
2023/07/28 07:04:32;;;;;;;2.00;1.88;;;;;;;20.37;92.96;100310.75;6319620;27;20232;-70
2023/07/28 07:07:54;;;;;;;1.88;1.77;;;;;;;20.35;91.87;100312.88;6322334;27;20598;-68
2023/07/28 07:11:15;;;;;;;1.35;1.25;;;;;;;20.39;91.32;100308.66;6328377;27;20360;-68
2023/07/28 07:14:36;;;;;;;2.00;1.73;;;;;;;20.46;91.28;100318.53;6318473;27;20654;-70
2023/07/28 07:17:57;;;;;;;1.80;1.70;;;;;;;20.49;91.13;100329.06;6321633;27;20230;-68
2023/07/28 07:21:19;;;;;;;2.03;1.92;;;;;;;20.31;90.68;100328.88;6308280;28;20521;-68
2023/07/28 07:24:40;;;;;;;2.05;1.85;;;;;;;20.07;90.40;100334.97;6311788;27;20226;-70
2023/07/28 07:28:01;;;;;;;1.50;1.40;;;;;;;20.01;91.23;100333.06;6298841;28;20229;-70
2023/07/28 07:31:21;;;;;;;1.88;1.77;;;;;;;19.88;91.34;100344.00;6309923;28;20226;-69
2023/07/28 07:34:42;;;;;;;1.85;1.75;;;;;;;20.18;91.75;100348.03;6302213;28;20231;-69
2023/07/28 07:38:08;;;;;;;1.70;1.60;;;;;;;20.43;91.05;100356.47;6314375;28;20238;-68
2023/07/28 07:41:30;;;;;;;1.45;1.35;;;;;;;20.36;90.57;100359.19;6311154;27;20234;-70
2023/07/28 07:44:51;;;;;;;5.38;2.00;;;;;;;20.41;90.32;100367.63;6309285;27;20571;-70
2023/07/28 07:48:12;;;;;;;2.05;1.85;;;;;;;20.44;90.55;100371.84;6320291;28;20245;-71
2023/07/28 07:51:33;;;;;;;1.58;1.48;;;;;;;20.50;90.30;100374.59;6303510;28;20222;-69
2023/07/28 07:54:56;;;;;;;1.67;1.58;;;;;;;20.80;89.47;100376.84;6320155;27;20233;-70
2023/07/28 07:58:17;;;;;;;1.50;1.40;;;;;;;21.05;87.77;100377.88;6323911;27;20234;-70
2023/07/28 08:01:37;;;;;;;2.75;1.75;;;;;;;21.21;86.94;100375.47;6320322;27;20246;-69
2023/07/28 08:04:58;;;;;;;1.90;1.80;;;;;;;21.54;86.49;100377.19;6307761;27;20234;-69
2023/07/28 08:08:19;;;;;;;1.92;1.73;;;;;;;21.48;85.63;100381.69;6311711;27;20226;-68
2023/07/28 08:11:42;;;;;;;1.88;1.77;;;;;;;21.80;85.23;100380.63;6305758;27;20225;-69
2023/07/28 08:15:03;;;;;;;1.17;1.00;;;;;;;21.73;84.18;100381.75;6316455;27;20497;-69
2023/07/28 08:18:24;;;;;;;2.10;1.55;;;;;;;21.66;83.21;100383.66;6311084;28;20226;-69
2023/07/28 08:21:45;;;;;;;1.73;1.63;;;;;;;21.75;82.70;100391.44;6316669;27;20835;-70
2023/07/28 08:25:06;;;;;;;1.60;1.50;;;;;;;21.88;82.26;100391.38;6326348;27;20230;-69
2023/07/28 08:28:29;;;;;;;1.02;1.02;;;;;;;21.46;81.62;100403.81;6320114;27;20316;-69
2023/07/28 08:31:50;;;;;;;1.38;1.27;;;;;;;21.45;82.26;100402.16;6321898;27;20233;-68
2023/07/28 08:35:11;;;;;;;2.20;1.25;;;;;;;21.52;82.81;100410.34;6310614;27;20226;-68
2023/07/28 08:38:32;;;;;;;1.75;1.63;;;;;;;21.37;83.66;100409.78;6327245;27;20225;-68
2023/07/28 08:41:59;;;;;;;1.45;1.38;;;;;;;21.44;84.24;100421.56;6322096;27;20595;-69
2023/07/28 08:45:23;;;;;;;1.17;1.10;;;;;;;21.35;84.45;100428.34;6320605;27;20514;-69
2023/07/28 08:48:44;;;;;;;1.23;1.13;;;;;;;21.23;84.27;100424.59;6333668;27;20230;-69
2023/07/28 08:52:06;;;;;;;1.50;1.40;;;;;;;21.08;83.99;100426.75;6347471;27;20233;-68
2023/07/28 08:55:27;;;;;;;8.45;7.65;;;;;;;21.16;84.16;100429.25;6311666;27;20596;-68
2023/07/28 08:58:48;;;;;;;10.70;9.90;;;;;;;21.00;84.40;100429.69;6318948;27;20687;-68
2023/07/28 09:02:11;;;;;;;3.55;3.25;;;;;;;21.07;85.09;100427.84;6348151;27;20230;-68
2023/07/28 09:05:34;;;;;;;1.83;1.73;;;;;;;21.18;85.16;100418.91;6305986;28;20230;-69
2023/07/28 09:08:57;;;;;;;1.77;1.67;;;;;;;21.21;85.42;100423.97;6312003;27;20316;-68
2023/07/28 09:12:18;;;;;;;2.30;1.73;;;;;;;21.15;85.63;100433.91;6319326;27;20230;-68
2023/07/28 09:15:40;;;;;;;1.30;1.20;;;;;;;21.29;85.51;100429.22;6339655;27;20222;-68
2023/07/28 09:19:07;;;;;;;3.85;1.60;;;;;;;21.45;85.48;100434.22;6312839;27;20253;-68
2023/07/28 09:22:30;;;;;;;2.20;1.65;;;;;;;21.64;85.23;100438.78;6326341;27;20230;-68
2023/07/28 09:26:00;;;;;;;1.45;1.35;;;;;;;21.55;84.43;100440.06;6340799;27;20556;-68
2023/07/28 09:29:23;;;;;;;1.70;1.60;;;;;;;21.41;84.80;100446.69;6312134;27;20221;-67
2023/07/28 09:32:50;;;;;;;1.50;1.40;;;;;;;21.73;84.42;100445.72;6315382;27;20237;-68
2023/07/28 09:36:17;;;;;;;1.75;1.52;;;;;;;21.51;83.79;100452.53;6332897;27;20225;-69
2023/07/28 09:39:41;;;;;;;1.27;1.20;;;;;;;21.57;84.03;100442.63;6315932;27;20221;-69
2023/07/28 09:43:02;;;;;;;1.15;1.02;;;;;;;21.70;83.34;100448.03;6326754;27;20230;-68
2023/07/28 09:46:25;;;;;;;5.32;4.93;;;;;;;21.71;82.79;100447.84;6297266;27;20234;-69
2023/07/28 09:49:49;;;;;;;7.55;6.88;;;;;;;21.59;82.89;100456.97;6328225;27;20312;-69
2023/07/28 09:53:11;;;;;;;2.42;2.22;;;;;;;21.47;82.87;100445.81;6310240;27;20234;-69
2023/07/28 09:56:33;;;;;;;2.65;2.45;;;;;;;21.62;83.47;100443.66;6312951;27;20222;-69
2023/07/28 09:59:56;;;;;;;2.47;2.28;;;;;;;21.67;83.50;100446.59;6302506;28;20218;-69
2023/07/28 10:03:17;;;;;;;2.63;2.38;;;;;;;21.54;83.74;100449.38;6312424;28;20230;-69
2023/07/28 10:06:39;;;;;;;1.40;1.30;;;;;;;21.60;83.57;100448.50;6313557;27;20226;-69
2023/07/28 10:10:02;;;;;;;1.55;1.42;;;;;;;21.64;83.65;100452.50;6327755;27;20303;-71
2023/07/28 10:13:23;;;;;;;1.52;1.42;;;;;;;21.63;83.66;100453.56;6328638;27;20233;-69
2023/07/28 10:16:44;;;;;;;5.75;2.22;;;;;;;21.48;83.34;100455.75;6320481;28;20230;-67
2023/07/28 10:20:08;;;;;;;1.58;1.45;;;;;;;21.64;83.26;100458.00;6296669;28;20322;-69
2023/07/28 10:23:29;;;;;;;1.73;1.50;;;;;;;21.78;82.66;100459.59;6316550;27;21013;-68
2023/07/28 10:26:59;;;;;;;1.40;1.30;;;;;;;21.83;82.33;100461.72;6317466;28;20234;-69
2023/07/28 10:30:20;;;;;;;1.95;1.65;;;;;;;21.65;82.10;100478.91;6330344;27;20601;-69
2023/07/28 10:33:45;;;;;;;1.58;1.48;;;;;;;21.61;81.77;100477.63;6305156;27;20222;-69
2023/07/28 10:37:07;;;;;;;1.88;1.58;;;;;;;20.90;82.38;100476.75;6316037;28;20965;-69
2023/07/28 10:40:30;;;;;;;2.55;2.35;;;;;;;21.14;83.61;100478.84;6301873;28;20313;-68
2023/07/28 10:43:53;;;;;;;9.13;1.80;;;;;;;21.18;84.23;100481.97;6293950;28;20780;-69
2023/07/28 10:47:15;;;;;;;2.20;2.08;;;;;;;21.31;83.82;100481.97;6310355;27;20233;-68
2023/07/28 10:50:36;;;;;;;1.40;1.00;;;;;;;21.70;82.80;100486.44;6306323;28;20322;-67
2023/07/28 10:54:00;;;;;;;1.05;1.05;;;;;;;21.96;81.82;100486.38;6307303;27;20310;-69
2023/07/28 10:57:21;;;;;;;1.42;1.33;;;;;;;21.98;80.76;100489.72;6334929;27;20241;-69
2023/07/28 11:00:43;;;;;;;1.38;1.27;;;;;;;22.60;80.13;100484.28;6306667;28;20234;-69
2023/07/28 11:04:09;;;;;;;1.38;1.27;;;;;;;22.89;78.29;100482.75;6310658;27;20225;-69
2023/07/28 11:07:30;;;;;;;1.00;1.00;;;;;;;22.85;77.77;100482.34;6337415;27;20635;-68
2023/07/28 11:10:51;;;;;;;1.35;1.27;;;;;;;22.14;78.37;100483.72;6332352;27;20303;-70
2023/07/28 11:14:12;;;;;;;7.00;1.50;;;;;;;22.84;77.98;100488.09;6310729;28;20522;-70
2023/07/28 11:17:34;;;;;;;1.63;1.52;;;;;;;23.08;77.29;100480.88;6298730;28;20230;-67
2023/07/28 11:20:55;;;;;;;2.25;1.50;;;;;;;23.45;75.07;100483.44;6304421;27;20577;-69
2023/07/28 11:24:20;;;;;;;6.82;3.88;;;;;;;23.86;74.30;100484.66;6318916;27;20236;-70
2023/07/28 11:27:41;;;;;;;2.80;1.95;;;;;;;24.19;72.65;100482.28;6328648;27;21941;-68
2023/07/28 11:31:03;;;;;;;1.50;1.40;;;;;;;25.03;71.16;100482.81;6336557;27;20221;-70
2023/07/28 11:34:25;;;;;;;1.38;1.27;;;;;;;25.67;69.13;100481.84;6300755;27;20225;-69
2023/07/28 11:37:47;;;;;;;1.52;1.42;;;;;;;26.19;67.80;100485.38;6316374;27;20950;-69
2023/07/28 11:41:09;;;;;;;1.95;1.35;;;;;;;25.30;67.43;100483.19;6298413;28;20230;-68
2023/07/28 11:44:29;;;;;;;0.90;0.90;;;;;;;25.74;67.58;100485.28;6308041;28;20674;-68
2023/07/28 11:47:56;;;;;;;0.95;0.95;;;;;;;24.94;68.78;100495.31;6322093;27;20239;-69
2023/07/28 11:51:19;;;;;;;1.42;1.33;;;;;;;24.61;69.66;100492.25;6325610;27;20230;-70
2023/07/28 11:54:39;;;;;;;2.08;1.88;;;;;;;24.47;69.75;100499.03;6327140;27;20248;-69
2023/07/28 11:58:04;;;;;;;1.25;1.05;;;;;;;24.63;69.93;100509.41;6329397;27;20226;-69
2023/07/28 12:01:25;;;;;;;1.55;1.45;;;;;;;25.01;69.37;100515.34;6302026;28;20226;-67
2023/07/28 12:04:47;;;;;;;1.25;1.02;;;;;;;25.03;69.24;100512.34;6313915;27;20233;-68
2023/07/28 12:08:09;;;;;;;0.90;0.90;;;;;;;25.00;68.68;100516.44;6297306;28;20234;-70
2023/07/28 12:11:31;;;;;;;1.13;1.10;;;;;;;25.10;69.10;100524.94;6295863;28;20223;-70
2023/07/28 12:14:52;;;;;;;0.82;0.82;;;;;;;25.33;68.05;100513.91;6319689;27;20245;-72
2023/07/28 12:18:14;;;;;;;1.30;1.20;;;;;;;25.19;68.16;100526.28;6311842;27;20232;-70
2023/07/28 12:21:34;;;;;;;2.08;1.88;;;;;;;24.86;68.51;100520.50;6301676;28;20250;-71
2023/07/28 12:24:56;;;;;;;1.15;1.15;;;;;;;24.05;70.95;100527.66;6319525;27;20232;-70
2023/07/28 12:28:17;;;;;;;1.17;1.08;;;;;;;23.69;72.12;100540.34;6320358;27;20651;-70
2023/07/28 12:31:38;;;;;;;1.85;1.52;;;;;;;23.48;73.37;100537.19;6301481;27;20241;-71
2023/07/28 12:34:59;;;;;;;0.95;0.90;;;;;;;23.72;72.53;100537.13;6295536;27;20607;-71
2023/07/28 12:38:20;;;;;;;2.10;1.13;;;;;;;23.50;73.65;100540.56;6312583;27;20328;-71
2023/07/28 12:41:42;;;;;;;1.63;1.15;;;;;;;23.84;73.60;100546.28;6311458;27;20211;-71
2023/07/28 12:45:06;;;;;;;1.00;1.00;;;;;;;24.93;70.54;100537.75;6321666;27;21537;-71
2023/07/28 12:48:27;;;;;;;1.15;1.05;;;;;;;25.41;68.31;100534.81;6313161;27;20230;-72
2023/07/28 12:51:48;;;;;;;0.90;0.85;;;;;;;25.58;66.65;100544.03;6312065;27;20257;-71
2023/07/28 12:55:12;;;;;;;1.23;1.10;;;;;;;24.94;67.41;100542.22;6324232;27;20789;-71
2023/07/28 12:58:34;;;;;;;1.02;0.98;;;;;;;24.48;70.02;100545.66;6301337;27;20230;-71
2023/07/28 13:01:55;;;;;;;0.90;0.90;;;;;;;24.41;70.79;100549.59;6300514;27;20235;-69
2023/07/28 13:05:17;;;;;;;0.80;0.80;;;;;;;24.19;71.26;100556.69;6300590;27;20344;-69
2023/07/28 13:08:37;;;;;;;1.05;1.05;;;;;;;24.17;71.78;100562.44;6292442;28;20222;-70
2023/07/28 13:11:58;;;;;;;1.20;1.15;;;;;;;24.00;72.10;100566.88;6317552;27;20226;-69
2023/07/28 13:15:20;;;;;;;1.05;1.05;;;;;;;23.76;72.36;100562.31;6326556;27;20237;-71
2023/07/28 13:18:44;;;;;;;1.48;1.38;;;;;;;23.56;74.10;100573.53;6322503;27;20222;-71
2023/07/28 13:22:05;;;;;;;0.80;0.80;;;;;;;23.43;74.43;100578.31;6322414;27;20559;-73
2023/07/28 13:25:26;;;;;;;2.75;2.47;;;;;;;23.63;74.64;100574.31;6313632;28;20229;-70
2023/07/28 13:28:48;;;;;;;1.77;1.20;;;;;;;23.99;73.80;100565.16;6298665;27;20237;-69
2023/07/28 13:32:24;;;;;;;0.85;0.82;;;;;;;23.77;74.34;100570.31;6314501;27;20230;-67
2023/07/28 13:35:45;;;;;;;3.20;3.00;;;;;;;24.26;72.96;100568.47;6300071;27;20230;-69
2023/07/28 13:39:06;;;;;;;1.48;1.38;;;;;;;25.01;70.44;100564.19;6303563;27;20589;-69
2023/07/28 13:42:27;;;;;;;0.88;0.88;;;;;;;25.79;66.86;100564.66;6327616;27;20218;-68
2023/07/28 13:45:48;;;;;;;2.38;1.65;;;;;;;25.67;67.14;100561.06;6303981;27;20229;-68
2023/07/28 13:49:10;;;;;;;1.63;1.52;;;;;;;25.91;66.15;100559.97;6316902;27;20229;-68
2023/07/28 13:52:31;;;;;;;2.65;2.45;;;;;;;25.09;68.29;100567.44;6310781;27;20230;-68
2023/07/28 13:55:52;;;;;;;5.80;5.30;;;;;;;24.65;70.17;100570.66;6304482;28;20253;-68
2023/07/28 13:59:13;;;;;;;4.10;3.75;;;;;;;24.81;70.26;100581.03;6298325;27;20605;-73
2023/07/28 14:02:34;;;;;;;1.35;1.25;;;;;;;25.09;68.91;100580.38;6308368;27;20230;-74
2023/07/28 14:05:56;;;;;;;1.85;0.93;;;;;;;24.72;69.80;100582.41;6276131;27;20583;-75
2023/07/28 14:09:17;;;;;;;1.13;0.90;;;;;;;24.71;69.71;100574.38;6273034;27;20230;-76
2023/07/28 14:12:38;;;;;;;0.75;0.75;;;;;;;24.80;69.29;100579.38;6278909;27;20595;-74
2023/07/28 14:15:59;;;;;;;0.68;0.68;;;;;;;24.68;69.66;100578.44;6265509;28;20519;-75
2023/07/28 14:19:20;;;;;;;3.53;1.20;;;;;;;24.96;68.74;100584.19;6275355;27;20299;-74
2023/07/28 14:22:42;;;;;;;3.15;2.92;;;;;;;24.86;69.90;100583.09;6276460;27;20234;-74
2023/07/28 14:26:03;;;;;;;1.42;1.33;;;;;;;24.52;70.76;100574.44;6303576;27;20226;-73
2023/07/28 14:29:24;;;;;;;1.77;0.70;;;;;;;24.79;70.04;100574.91;6300681;27;20315;-74
2023/07/28 14:32:44;;;;;;;4.55;2.83;;;;;;;24.49;70.25;100588.69;6323807;27;20549;-74
2023/07/28 14:36:05;;;;;;;3.53;2.10;;;;;;;24.47;70.81;100574.31;6314917;27;20663;-74
2023/07/28 14:39:27;;;;;;;1.02;1.02;;;;;;;24.97;69.75;100572.06;6328869;27;20225;-73
2023/07/28 14:42:48;;;;;;;0.70;0.70;;;;;;;25.61;68.65;100582.22;6311931;28;20620;-73
2023/07/28 14:46:08;;;;;;;8.35;7.13;;;;;;;26.29;67.40;100568.50;6309906;28;20230;-75
2023/07/28 14:49:30;;;;;;;4.53;3.50;;;;;;;25.81;67.32;100571.63;6309790;27;20220;-74
2023/07/28 14:52:51;;;;;;;3.10;2.80;;;;;;;25.68;68.08;100573.81;6326146;27;20237;-68
2023/07/28 14:56:14;;;;;;;3.63;3.33;;;;;;;25.36;68.49;100581.59;6296005;28;21100;-68
2023/07/28 14:59:35;;;;;;;1.88;1.67;;;;;;;24.37;70.75;100581.44;6295270;28;20800;-69
2023/07/28 15:02:56;;;;;;;2.65;2.42;;;;;;;24.05;72.31;100583.59;6306437;27;20231;-68
2023/07/28 15:06:17;;;;;;;3.45;2.10;;;;;;;24.29;72.66;100579.88;6329641;27;20320;-69
2023/07/28 15:09:38;;;;;;;0.80;0.80;;;;;;;24.20;72.47;100580.44;6288889;27;20238;-69
2023/07/28 15:13:00;;;;;;;1.00;1.00;;;;;;;24.54;71.93;100576.97;6313569;27;20234;-69
2023/07/28 15:16:21;;;;;;;2.17;1.88;;;;;;;24.21;72.86;100582.09;6335625;27;20850;-69
2023/07/28 15:19:42;;;;;;;1.85;1.42;;;;;;;24.19;73.16;100584.25;6304213;27;20222;-69
2023/07/28 15:23:03;;;;;;;1.02;0.93;;;;;;;24.58;71.03;100581.78;6311738;28;20230;-69
2023/07/28 15:26:25;;;;;;;9.15;8.30;;;;;;;25.36;69.90;100579.69;6298887;27;20218;-69
2023/07/28 15:29:47;;;;;;;5.22;4.10;;;;;;;25.45;68.63;100568.31;6322592;27;20366;-70
2023/07/28 15:33:08;;;;;;;1.02;1.00;;;;;;;25.51;68.85;100575.63;6313743;27;20635;-69
2023/07/28 15:36:29;;;;;;;2.95;2.60;;;;;;;25.72;68.54;100575.00;6330907;27;20225;-69